Flight Track Log - Related Links

Times and Time Zones

All times are in EDT time to prevent confusion due to time zone crossing. See the UAL395 flight status page for this flight to view local times or setup timezone preferences in your user account.

Time Position Orientation Groundspeed Altitude Reporting Facility
EDT Latitude Longitude Course Direction KTS MPH feet Rate Location/Type
Tue 07:12:24 PM 51.1167 -114.0333 165° South 150 173 5,600  Level Edmonton Center
Tue 07:13:24 PM 51.1500 -114.1000 309° West 200 230 7,300 1,950 Climbing Edmonton Center
Tue 07:14:24 PM 51.1167 -114.1500 223° Southwest 270 311 9,500 2,000 Climbing Edmonton Center
Tue 07:15:24 PM 51.0167 -114.1500 180° South 330 380 11,300 2,050 Climbing Edmonton Center
Tue 07:16:24 PM 50.9000 -114.1333 175° South 360 414 13,600 2,250 Climbing Edmonton Center
Tue 07:17:00 PM 50.4944 -113.7333 165° South  Level FlightAware Approximate
Tue 07:17:24 PM 50.8000 -114.1333 180° South 380 437 15,800  Level Edmonton Center
Tue 07:18:24 PM 50.7000 -114.1167 174° South 390 449 18,200 2,100 Climbing Edmonton Center
Tue 07:19:24 PM 50.5833 -114.0833 170° South 400 460 20,000 2,450 Climbing Edmonton Center
Tue 07:20:24 PM 50.4833 -114.0667 174° South 400 460 23,100 2,100 Climbing Edmonton Center
Tue 07:21:24 PM 50.3667 -114.0500 175° South 390 449 24,200 1,400 Climbing Edmonton Center
Tue 07:22:24 PM 50.2833 -113.9500 143° Southeast 410 472 25,900 1,650 Climbing Edmonton Center
Tue 07:23:24 PM 50.1833 -113.8167 139° Southeast 430 495 27,500 1,450 Climbing Edmonton Center
Tue 07:24:24 PM 50.1000 -113.7000 138° Southeast 440 506 28,800 1,200 Climbing Edmonton Center
Tue 07:25:24 PM 50.0000 -113.5500 136° Southeast 450 518 29,900 1,150 Climbing Edmonton Center
Tue 07:26:24 PM 49.9000 -113.4167 139° Southeast 460 529 31,100 1,400 Climbing Edmonton Center
Tue 07:27:24 PM 49.8000 -113.2833 139° Southeast 470 541 32,700 1,350 Climbing Edmonton Center
Tue 07:28:24 PM 49.7167 -113.1500 134° Southeast 470 541 33,800 1,200 Climbing Edmonton Center
Tue 07:29:24 PM 49.6000 -113.0333 147° Southeast 470 541 35,100 1,200 Climbing Edmonton Center
Tue 07:30:24 PM 49.5167 -112.9167 138° Southeast 460 529 36,200 950 Climbing Edmonton Center
Tue 07:31:24 PM 49.4000 -112.7667 140° Southeast 460 529 37,000 400 Climbing Edmonton Center
Tue 07:32:24 PM 49.3167 -112.6333 134° Southeast 460 529 37,000  Level Edmonton Center
Tue 07:33:24 PM 49.2167 -112.5000 139° Southeast 470 541 37,000  Level Edmonton Center
Tue 07:34:24 PM 49.1167 -112.3833 143° Southeast 480 552 37,000  Level Edmonton Center
Tue 07:35:24 PM 49.0000 -112.2333 140° Southeast 480 552 37,000  Level Edmonton Center
Tue 07:36:24 PM 48.9167 -112.1167 137° Southeast 480 552 37,000  Level Edmonton Center
Tue 07:37:16 PM 48.8667 -111.9958 122° Southeast 489 563 37,000  Level Salt Lake Center
Tue 07:38:17 PM 48.7625 -111.8636 140° Southeast 489 563 37,000  Level Salt Lake Center
Tue 07:39:19 PM 48.6383 -111.7036 140° Southeast 489 563 37,000 -49 Level Salt Lake Center
Tue 07:40:20 PM 48.5339 -111.5725 140° Southeast 489 563 36,900  Descending Salt Lake Center
Tue 07:41:22 PM 48.4286 -111.4400 140° Southeast 492 566 37,000 48 Climbing Salt Lake Center
Tue 07:42:24 PM 48.3253 -111.3100 140° Southeast 488 562 37,000 -49 Level Salt Lake Center
Tue 07:43:25 PM 48.2208 -111.1819 141° Southeast 485 558 36,900 -49 Descending Salt Lake Center
Tue 07:44:27 PM 48.1164 -111.0522 140° Southeast 486 559 36,900 49 Level Salt Lake Center
Tue 07:45:28 PM 48.0117 -110.9231 140° Southeast 485 558 37,000 49 Climbing Salt Lake Center
Tue 07:46:30 PM 47.9061 -110.7942 141° Southeast 487 560 37,000 -48 Level Salt Lake Center
Tue 07:47:32 PM 47.8017 -110.6661 141° Southeast 485 558 36,900  Descending Salt Lake Center
Tue 07:48:33 PM 47.6758 -110.5139 141° Southeast 484 557 37,000  Climbing Salt Lake Center
Tue 07:49:35 PM 47.5719 -110.3869 140° Southeast 483 556 36,900 -49 Descending Salt Lake Center
Tue 07:50:36 PM 47.4669 -110.2617 141° Southeast 484 557 36,900 49 Level Salt Lake Center
Tue 07:51:38 PM 47.3622 -110.1389 142° Southeast 480 552 37,000 48 Climbing Salt Lake Center
Tue 07:52:40 PM 47.2583 -110.0150 141° Southeast 481 554 37,000  Level Salt Lake Center
Tue 07:53:41 PM 47.1547 -109.8886 140° Southeast 482 555 37,000  Level Salt Lake Center
Tue 07:54:43 PM 47.0503 -109.7656 141° Southeast 483 556 37,000  Level Salt Lake Center
Tue 07:55:45 PM 46.9453 -109.6433 142° Southeast 483 556 37,000  Level Salt Lake Center
Tue 07:56:46 PM 46.8203 -109.4961 141° Southeast 481 554 37,000 -49 Level Salt Lake Center
Tue 07:57:48 PM 46.7164 -109.3756 141° Southeast 480 552 36,900  Descending Salt Lake Center
Tue 07:58:49 PM 46.6153 -109.2642 143° Southeast 480 552 37,000 49 Climbing Salt Lake Center
Tue 07:59:51 PM 46.4992 -109.1314 142° Southeast 476 548 37,000  Level Salt Lake Center
Tue 08:00:52 PM 46.3994 -109.0197 142° Southeast 473 544 37,000  Level Salt Lake Center
Tue 08:01:54 PM 46.2839 -108.8897 142° Southeast 473 544 37,000  Level Salt Lake Center
Tue 08:02:55 PM 46.1850 -108.7781 142° Southeast 471 542 37,000  Level Salt Lake Center
Tue 08:03:57 PM 46.0836 -108.6656 142° Southeast 479 551 37,000  Level Salt Lake Center
Tue 08:04:58 PM 45.9658 -108.5353 142° Southeast 477 549 37,000  Level Salt Lake Center
Tue 08:06:00 PM 45.8656 -108.4247 142° Southeast 475 547 37,000  Level Salt Lake Center
Tue 08:07:01 PM 45.7486 -108.2969 143° Southeast 474 545 37,000  Level Salt Lake Center
Tue 08:08:03 PM 45.6478 -108.1850 142° Southeast 477 549 37,000  Level Salt Lake Center
Tue 08:09:04 PM 45.5458 -108.0747 143° Southeast 481 554 37,000  Level Salt Lake Center
Tue 08:10:06 PM 45.4289 -107.9469 143° Southeast 473 544 37,000  Level Salt Lake Center
Tue 08:11:07 PM 45.3275 -107.8369 143° Southeast 476 548 37,000  Level Salt Lake Center
Tue 08:12:08 PM 45.2094 -107.7106 143° Southeast 473 544 37,000  Level Salt Lake Center
Tue 08:13:10 PM 45.1086 -107.6019 143° Southeast 473 544 37,000  Level Salt Lake Center
Tue 08:14:11 PM 45.0072 -107.4950 143° Southeast 470 541 37,000  Level Salt Lake Center
Tue 08:15:13 PM 44.8875 -107.3694 143° Southeast 474 545 37,000  Level Salt Lake Center
Tue 08:16:14 PM 44.7839 -107.2608 143° Southeast 479 551 37,000  Level Salt Lake Center
Tue 08:17:16 PM 44.6819 -107.1531 143° Southeast 479 551 37,000  Level Salt Lake Center
Tue 08:18:17 PM 44.5633 -107.0286 143° Southeast 477 549 37,000  Level Salt Lake Center
Tue 08:19:18 PM 44.4600 -106.9244 144° Southeast 477 549 37,000  Level Salt Lake Center
Tue 08:20:20 PM 44.3564 -106.8183 144° Southeast 481 554 37,000  Level Salt Lake Center
Tue 08:21:21 PM 44.2372 -106.6933 143° Southeast 481 554 37,000  Level Salt Lake Center
Tue 08:22:23 PM 44.1358 -106.5883 143° Southeast 476 548 37,000  Level Salt Lake Center
Tue 08:22:57 PM 44.0664 -106.5169 144° Southeast 472 543 37,000  Level Denver Center
Tue 08:23:58 PM 43.9661 -106.4147 144° Southeast 467 537 37,000 -49 Level Denver Center
Tue 08:25:00 PM 43.8661 -106.3128 144° Southeast 467 537 36,900  Descending Denver Center
Tue 08:26:01 PM 43.7483 -106.1944 144° Southeast 470 541 37,000 98 Climbing Denver Center
Tue 08:27:03 PM 43.6486 -106.0947 144° Southeast 464 534 37,100  Climbing Denver Center
Tue 08:28:04 PM 43.5331 -105.9792 144° Southeast 459 528 37,000 -49 Descending Denver Center
Tue 08:29:05 PM 43.4347 -105.8814 144° Southeast 456 525 37,000  Level Denver Center
Tue 08:30:07 PM 43.3383 -105.7861 144° Southeast 449 517 37,000  Level Denver Center
Tue 08:31:08 PM 43.2261 -105.6767 145° Southeast 444 511 37,000  Level Denver Center
Tue 08:32:22 PM 43.1319 -105.5833 144° Southeast 438 504 37,000  Level Denver Center
Tue 08:33:24 PM 43.0042 -105.4583 144° Southeast 442 509 37,000  Level Denver Center
Tue 08:34:25 PM 42.9086 -105.3636 144° Southeast 443 510 37,000  Level Denver Center
Tue 08:35:27 PM 42.7908 -105.2511 145° Southeast 459 528 37,000  Level Denver Center
Tue 08:36:28 PM 42.6892 -105.1536 145° Southeast 466 536 37,000 49 Level Denver Center
Tue 08:37:29 PM 42.5692 -105.0389 145° Southeast 474 545 37,100 44 Climbing Denver Center
Tue 08:38:43 PM 42.4681 -104.9431 145° Southeast 471 542 37,100 -44 Level Denver Center
Tue 08:39:45 PM 42.3361 -104.8164 145° Southeast 461 531 37,000 -49 Descending Denver Center
Tue 08:40:46 PM 42.2353 -104.7225 145° Southeast 463 533 37,000  Level Denver Center
Tue 08:41:47 PM 42.1153 -104.6083 145° Southeast 473 544 37,000  Level Denver Center
Tue 08:42:49 PM 42.0106 -104.5106 145° Southeast 480 552 37,000  Level Denver Center
Tue 08:43:50 PM 41.8878 -104.3944 145° Southeast 484 557 37,000  Level Denver Center
Tue 08:44:52 PM 41.7822 -104.2950 145° Southeast 485 558 37,000  Level Denver Center
Tue 08:45:53 PM 41.6592 -104.1836 146° Southeast 478 550 37,000  Level Denver Center
Tue 08:47:07 PM 41.5369 -104.0706 145° Southeast 481 554 37,000  Level Denver Center
Tue 08:48:08 PM 41.4206 -103.9628 145° Southeast 457 526 37,000  Level Denver Center
Tue 08:49:10 PM 41.3208 -103.8722 146° Southeast 453 521 37,000  Level Denver Center
Tue 08:50:11 PM 41.2222 -103.7819 145° Southeast 452 520 37,000  Level Denver Center
Tue 08:51:13 PM 41.1053 -103.6767 146° Southeast 453 521 37,000  Level Denver Center
Tue 08:52:14 PM 41.0053 -103.5856 145° Southeast 457 526 37,000  Level Denver Center
Tue 08:53:15 PM 40.8953 -103.4878 146° Southeast 459 528 37,000  Level Denver Center
Tue 08:54:17 PM 40.7869 -103.3900 146° Southeast 464 534 37,000 49 Level Denver Center
Tue 08:55:18 PM 40.6783 -103.2931 146° Southeast 465 535 37,100  Climbing Denver Center
Tue 08:56:20 PM 40.5717 -103.1986 146° Southeast 459 528 37,000 -49 Descending Denver Center
Tue 08:57:21 PM 40.4667 -103.1044 146° Southeast 454 522 37,000  Level Denver Center
Tue 08:58:22 PM 40.3614 -103.0133 147° Southeast 449 517 37,000 -49 Level Denver Center
Tue 08:59:24 PM 40.2397 -102.9058 146° Southeast 448 516 36,900  Descending Denver Center
Tue 09:00:25 PM 40.1328 -102.8114 146° Southeast 456 525 37,000 49 Climbing Denver Center
Tue 09:01:27 PM 40.0236 -102.7167 146° Southeast 460 529 37,000  Level Denver Center
Tue 09:02:28 PM 39.9094 -102.6181 146° Southeast 473 544 37,000  Level Denver Center
Tue 09:03:29 PM 39.8225 -102.5433 147° Southeast 470 541 37,000  Level Denver Center
Tue 09:04:31 PM 39.7039 -102.4403 146° Southeast 464 534 37,000  Level Denver Center
Tue 09:05:32 PM 39.5839 -102.3383 147° Southeast 463 533 37,000  Level Denver Center
Tue 09:06:34 PM 39.4808 -102.2500 147° Southeast 464 534 37,000  Level Denver Center
Tue 09:07:35 PM 39.3606 -102.1475 147° Southeast 464 534 37,000  Level Denver Center
Tue 09:08:36 PM 39.2550 -102.0572 146° Southeast 455 524 37,000  Level Denver Center
Tue 09:09:38 PM 39.1519 -101.9714 147° Southeast 458 527 37,000  Level Denver Center
Tue 09:10:39 PM 39.0292 -101.8683 147° Southeast 470 541 37,000  Level Denver Center
Tue 09:11:40 PM 38.9247 -101.7794 146° Southeast 470 541 37,000  Level Denver Center
Tue 09:12:42 PM 38.8197 -101.6922 147° Southeast 468 539 37,000  Level Denver Center
Tue 09:13:43 PM 38.6986 -101.5919 147° Southeast 463 533 37,000  Level Denver Center
Tue 09:14:45 PM 38.5950 -101.5050 147° Southeast 464 534 37,000  Level Denver Center
Tue 09:15:46 PM 38.4736 -101.4061 147° Southeast 465 535 37,000  Level Denver Center
Tue 09:16:48 PM 38.3703 -101.3211 147° Southeast 462 532 37,000  Level Denver Center
Tue 09:17:49 PM 38.2661 -101.2347 147° Southeast 464 534 37,000  Level Denver Center
Tue 09:18:51 PM 38.1436 -101.1358 148° Southeast 466 536 37,000  Level Denver Center
Tue 09:19:52 PM 38.0397 -101.0506 147° Southeast 465 535 37,000  Level Denver Center
Tue 09:20:54 PM 37.9194 -100.9528 147° Southeast 459 528 37,000  Level Denver Center
Tue 09:21:32 PM 37.8511 -100.8967 147° Southeast 456 525 37,000  Level Kansas City Center
Tue 09:22:34 PM 37.7456 -100.8103 147° Southeast 449 517 37,000  Level Kansas City Center
Tue 09:23:35 PM 37.6378 -100.7239 148° Southeast 457 526 37,000  Level Kansas City Center
Tue 09:24:37 PM 37.5308 -100.6389 148° Southeast 455 524 37,000  Level Kansas City Center
Tue 09:25:39 PM 37.4194 -100.5506 148° Southeast 456 525 37,000  Level Kansas City Center
Tue 09:26:40 PM 37.3161 -100.4689 148° Southeast 457 526 37,000  Level Kansas City Center
Tue 09:27:42 PM 37.1947 -100.3728 148° Southeast 461 531 37,000  Level Kansas City Center
Tue 09:28:43 PM 37.0908 -100.2911 148° Southeast 461 531 37,000  Level Kansas City Center
Tue 09:29:45 PM 36.9711 -100.1969 148° Southeast 456 525 37,000  Level Kansas City Center
Tue 09:30:47 PM 36.8689 -100.1164 148° Southeast 453 521 37,000  Level Kansas City Center
Tue 09:31:48 PM 36.7542 -100.0272 148° Southeast 451 519 37,000  Level Kansas City Center
Tue 09:32:50 PM 36.6481 -99.9433 148° Southeast 453 521 37,000  Level Kansas City Center
Tue 09:33:52 PM 36.5406 -99.8614 149° Southeast 452 520 37,000  Level Kansas City Center
Tue 09:34:53 PM 36.4308 -99.7756 148° Southeast 463 533 37,000  Level Kansas City Center
Tue 09:35:55 PM 36.3219 -99.6925 148° Southeast 461 531 37,000  Level Kansas City Center
Tue 09:36:57 PM 36.2142 -99.6094 148° Southeast 457 526 37,000  Level Kansas City Center
Tue 09:37:58 PM 36.1072 -99.5281 148° Southeast 454 522 37,000  Level Kansas City Center
Tue 09:39:00 PM 35.9800 -99.4308 148° Southeast 452 520 37,000  Level Kansas City Center
Tue 09:40:01 PM 35.8733 -99.3517 149° Southeast 454 522 37,000  Level Kansas City Center
Tue 09:40:42 PM 35.8028 -99.2997 149° Southeast 466 536 37,000  Level Fort Worth Center
Tue 09:41:42 PM 35.6914 -99.2153 148° Southeast 466 536 37,000  Level Fort Worth Center
Tue 09:42:42 PM 35.5842 -99.1339 148° Southeast 466 536 37,000  Level Fort Worth Center
Tue 09:43:42 PM 35.4725 -99.0575 151° Southeast 466 536 37,000  Level Fort Worth Center
Tue 09:44:42 PM 35.3608 -98.9842 152° Southeast 461 531 37,000  Level Fort Worth Center
Tue 09:45:42 PM 35.2492 -98.9083 151° Southeast 456 525 37,000  Level Fort Worth Center
Tue 09:46:42 PM 35.1394 -98.8328 151° Southeast 456 525 37,000  Level Fort Worth Center
Tue 09:47:42 PM 35.0278 -98.7572 151° Southeast 456 525 37,000  Level Fort Worth Center
Tue 09:48:42 PM 34.9158 -98.6847 152° Southeast 456 525 37,000  Level Fort Worth Center
Tue 09:49:42 PM 34.8061 -98.6097 151° Southeast 456 525 37,000  Level Fort Worth Center
Tue 09:50:42 PM 34.6942 -98.5350 151° Southeast 456 525 37,000  Level Fort Worth Center
Tue 09:51:42 PM 34.5800 -98.4653 153° Southeast 456 525 37,000  Level Fort Worth Center
Tue 09:52:42 PM 34.4511 -98.3831 152° Southeast 456 525 37,000  Level Fort Worth Center
Tue 09:53:42 PM 34.3350 -98.3039 151° Southeast 469 540 37,000  Level Fort Worth Center
Tue 09:54:42 PM 34.2208 -98.2297 152° Southeast 469 540 37,000  Level Fort Worth Center
Tue 09:55:42 PM 34.1044 -98.1533 151° Southeast 469 540 37,000  Level Fort Worth Center
Tue 09:56:42 PM 33.9919 -98.0797 152° Southeast 469 540 37,000  Level Fort Worth Center
Tue 09:57:42 PM 33.8756 -98.0039 152° Southeast 469 540 37,000  Level Fort Worth Center
Tue 09:58:42 PM 33.7633 -97.9256 150° Southeast 469 540 37,000  Level Fort Worth Center
Tue 09:59:42 PM 33.6508 -97.8525 152° Southeast 475 547 37,000  Level Fort Worth Center
Tue 10:00:42 PM 33.5364 -97.7797 152° Southeast 467 537 37,000  Level Fort Worth Center
Tue 10:01:42 PM 33.4217 -97.7072 152° Southeast 467 537 37,000  Level Fort Worth Center
Tue 10:02:42 PM 33.3175 -97.6397 152° Southeast 467 537 37,000  Level Fort Worth Center
Tue 10:03:42 PM 33.2047 -97.5672 152° Southeast 467 537 37,000  Level Fort Worth Center
Tue 10:04:42 PM 33.0797 -97.4853 151° Southeast 467 537 37,000  Level Fort Worth Center
Tue 10:05:42 PM 32.9733 -97.4233 154° Southeast 472 543 37,000  Level Fort Worth Center
Tue 10:06:42 PM 32.8417 -97.3442 153° Southeast 472 543 37,000  Level Fort Worth Center
Tue 10:07:42 PM 32.7372 -97.2875 155° Southeast 467 537 37,000  Level Fort Worth Center
Tue 10:08:42 PM 32.6078 -97.2111 154° Southeast 462 532 37,000  Level Fort Worth Center
Tue 10:09:42 PM 32.5033 -97.1497 154° Southeast 462 532 37,000  Level Fort Worth Center
Tue 10:10:42 PM 32.3736 -97.0739 154° Southeast 469 540 37,000  Level Fort Worth Center
Tue 10:12:42 PM 32.1519 -96.9497 155° Southeast 463 533 37,000  Level Fort Worth Center
Tue 10:13:42 PM 32.0347 -96.8792 153° Southeast 469 540 37,000 -150 Level Fort Worth Center
Tue 10:14:42 PM 31.9175 -96.8114 154° Southeast 469 540 36,700 -1,200 Descending Fort Worth Center
Tue 10:15:42 PM 31.7897 -96.7389 154° Southeast 469 540 34,600 -2,199 Descending Fort Worth Center
Tue 10:17:00 PM 31.6631 -96.6279 143° Southeast  Level FlightAware Approximate
Tue 10:18:53 PM 31.4281 -96.5167 161° South 464 534 27,500  Level Houston Center
Tue 10:19:54 PM 31.3153 -96.4389 149° Southeast 463 533 25,100 -1,721 Descending Houston Center
Tue 10:20:55 PM 31.2050 -96.3647 150° Southeast 452 520 24,000 -541 Descending Houston Center
Tue 10:21:56 PM 31.0947 -96.2900 150° Southeast 452 520 24,000 -689 Level Houston Center
Tue 10:22:57 PM 30.9847 -96.2164 150° Southeast 450 518 22,600 -1,426 Descending Houston Center
Tue 10:23:58 PM 30.8764 -96.1433 150° Southeast 445 512 21,100 -1,525 Descending Houston Center
Tue 10:24:00 PM 30.8759 -96.2737 161° South  Level FlightAware Approximate
Tue 10:24:59 PM 30.7706 -96.0722 150° Southeast 436 502 19,500  Level Houston Center
Tue 10:26:00 PM 30.6581 -95.9994 151° Southeast 439 505 17,000 -2,438 Descending Houston Center
Tue 10:26:35 PM 30.5936 -95.9583 151° Southeast 437 503 15,600 -2,262 Descending Houston Center
Tue 10:27:01 PM 30.5542 -95.9303 149° Southeast 431 496 14,700 -2,557 Descending Houston Center
Tue 10:27:36 PM 30.4933 -95.8897 150° Southeast 404 465 13,000 -2,557 Descending Houston Center
Tue 10:28:02 PM 30.4581 -95.8650 149° Southeast 405 466 12,100 -984 Descending Houston Center
Tue 10:28:37 PM 30.4094 -95.8172 140° Southeast 361 415 12,000  Descending Houston Center
Tue 10:29:03 PM 30.3833 -95.7892 137° Southeast 361 415 12,100 -800 Climbing Houston Center
Tue 10:29:37 PM 30.3400 -95.7456 139° Southeast 304 350 11,200 -1,400 Descending Houston Center
Tue 10:30:03 PM 30.3194 -95.7228 136° Southeast 318 366 10,700 -1,574 Descending Houston Center
Tue 10:30:38 PM 30.2775 -95.6803 139° Southeast 305 351 9,600 -1,574 Descending Houston Center
Tue 10:31:04 PM 30.2572 -95.6581 137° Southeast 304 350 9,100 -1,475 Descending Houston Center
Tue 10:31:39 PM 30.2153 -95.6175 140° Southeast 287 330 8,100 -1,475 Descending Houston Center
Tue 10:32:05 PM 30.1986 -95.5975 134° Southeast 288 331 7,600 -1,082 Descending Houston Center
Tue 10:32:40 PM 30.1572 -95.5542 138° Southeast 280 322 7,000 -590 Descending Houston Center
Tue 10:33:06 PM 30.1411 -95.5369 137° Southeast 281 323 7,000  Level Houston Center
Tue 10:33:41 PM 30.1050 -95.4881 130° Southeast 284 327 7,000 98 Level Houston Center
Tue 10:34:07 PM 30.1058 -95.4614 88° East 295 339 7,100  Climbing Houston Center
Tue 10:34:42 PM 30.1053 -95.3986 91° East 282 325 7,000 -492 Descending Houston Center
Tue 10:35:08 PM 30.1058 -95.3703 89° East 284 327 6,600 -984 Descending Houston Center
Tue 10:35:43 PM 30.1050 -95.3044 91° East 274 315 6,000 -590 Descending Houston Center
Tue 10:36:09 PM 30.1061 -95.2803 87° East 280 322 6,000 -900 Level Houston Center
Tue 10:36:43 PM 30.1053 -95.2150 91° East 278 320 5,100 -1,279 Descending Houston Center
Tue 10:37:10 PM 30.1019 -95.1917 99° East 282 325 4,700 -1,377 Descending Houston Center
Tue 10:37:44 PM 30.0564 -95.1631 151° Southeast 261 300 3,700 -1,082 Descending Houston Center
Tue 10:38:11 PM 30.0381 -95.1647 184° South 261 300 3,600 -222 Descending Houston Center

Login

Don't have an account? Register now (free) for customized features, flight alerts, and more!